Time;durP1;ratioP1;P1;durP2;ratioP2;P2;SDS_P1;SDS_P2;PMS_P1;PMS_P2;Temp;Humidity;BMP_temperature;BMP_pressure;BME280_temperature;BME280_humidity;BME280_pressure;Samples;Min_cycle;Max_cycle;Signal;HPM_P1;HPM_P2
2023/11/08 00:00:07;;;;;;;6.38;5.10;;;;;;;;;;5887027;28;20052;-72
2023/11/08 00:02:58;;;;;;;6.65;4.28;;;;;;;;;;5887011;28;20045;-72
2023/11/08 00:05:49;;;;;;;16.50;5.93;;;;;;;;;;5887071;28;20041;-72
2023/11/08 00:08:39;;;;;;;8.63;4.22;;;;;;;;;;5886744;28;20045;-73
2023/11/08 00:11:32;;;;;;;9.07;5.65;;;;;;;;;;5886660;28;20049;-73
2023/11/08 00:14:22;;;;;;;9.13;4.65;;;;;;;;;;5886606;28;20051;-73
2023/11/08 00:17:14;;;;;;;10.38;4.97;;;;;;;;;;5886834;28;20064;-74
2023/11/08 00:20:08;;;;;;;8.55;4.32;;;;;;;;;;5886616;28;20059;-73
2023/11/08 00:22:59;;;;;;;8.40;3.78;;;;;;;;;;5886954;28;20045;-73
2023/11/08 00:25:50;;;;;;;9.05;5.80;;;;;;;;;;5886794;28;20055;-73
2023/11/08 00:28:41;;;;;;;10.65;4.65;;;;;;;;;;5885114;28;20060;-72
2023/11/08 00:31:32;;;;;;;10.18;5.63;;;;;;;;;;5886431;28;20055;-73
2023/11/08 00:34:22;;;;;;;12.80;4.65;;;;;;;;;;5886312;28;20041;-73
2023/11/08 00:37:13;;;;;;;5.78;4.55;;;;;;;;;;5886284;28;22518;-73
2023/11/08 00:40:06;;;;;;;5.90;4.60;;;;;;;;;;5886279;28;20052;-72
2023/11/08 00:42:57;;;;;;;7.63;4.35;;;;;;;;;;5886402;28;20044;-72
2023/11/08 00:45:49;;;;;;;5.95;5.35;;;;;;;;;;5886343;28;20049;-72
2023/11/08 00:48:39;;;;;;;7.05;4.75;;;;;;;;;;5885949;28;20053;-73
2023/11/08 00:51:31;;;;;;;4.63;4.22;;;;;;;;;;5885966;28;20048;-73
2023/11/08 00:54:22;;;;;;;12.07;4.18;;;;;;;;;;5885974;28;20503;-72
2023/11/08 00:57:13;;;;;;;7.75;5.25;;;;;;;;;;5885905;28;20455;-72
2023/11/08 01:00:07;;;;;;;6.97;4.75;;;;;;;;;;5885701;28;20056;-73
2023/11/08 01:02:59;;;;;;;6.07;4.25;;;;;;;;;;5902278;28;20056;-73
2023/11/08 01:05:50;;;;;;;9.40;4.68;;;;;;;;;;5909306;28;20052;-72
2023/11/08 01:08:41;;;;;;;6.40;5.00;;;;;;;;;;5909076;28;20040;-73
2023/11/08 01:11:32;;;;;;;5.00;3.88;;;;;;;;;;5908895;28;20535;-73
2023/11/08 01:14:23;;;;;;;6.20;4.03;;;;;;;;;;5908016;28;20046;-73
2023/11/08 01:17:14;;;;;;;6.50;3.78;;;;;;;;;;5908829;28;20051;-72
2023/11/08 01:20:06;;;;;;;9.55;3.97;;;;;;;;;;5908920;28;20052;-73
2023/11/08 01:22:58;;;;;;;4.50;4.10;;;;;;;;;;5909232;28;20063;-73
2023/11/08 01:25:49;;;;;;;8.60;4.95;;;;;;;;;;5908977;28;20516;-72
2023/11/08 01:28:39;;;;;;;12.82;5.30;;;;;;;;;;5908733;28;20589;-73
2023/11/08 01:31:30;;;;;;;15.88;7.47;;;;;;;;;;5908919;28;20433;-73
2023/11/08 01:34:21;;;;;;;12.73;5.18;;;;;;;;;;5908575;28;20056;-73
2023/11/08 01:37:12;;;;;;;17.88;6.60;;;;;;;;;;5908530;28;20053;-72
2023/11/08 01:40:06;;;;;;;5.13;4.32;;;;;;;;;;5908642;28;20417;-73
2023/11/08 01:42:56;;;;;;;6.45;4.93;;;;;;;;;;5909219;28;20059;-72
2023/11/08 01:45:47;;;;;;;11.75;4.25;;;;;;;;;;5908477;28;20060;-73
2023/11/08 01:48:40;;;;;;;8.55;4.88;;;;;;;;;;5907192;28;20052;-73
2023/11/08 01:51:32;;;;;;;6.53;4.72;;;;;;;;;;5907322;28;20433;-73
2023/11/08 01:54:26;;;;;;;7.55;4.57;;;;;;;;;;5908457;28;20044;-72
2023/11/08 01:57:17;;;;;;;11.45;6.30;;;;;;;;;;5908408;28;20044;-72
2023/11/08 02:00:10;;;;;;;8.85;5.82;;;;;;;;;;5908148;28;20664;-72
2023/11/08 02:03:01;;;;;;;4.80;3.40;;;;;;;;;;5908430;28;20048;-72
2023/11/08 02:05:52;;;;;;;5.25;2.75;;;;;;;;;;5908699;28;20169;-73
2023/11/08 02:08:45;;;;;;;8.75;4.00;;;;;;;;;;5908149;28;20048;-73
2023/11/08 02:11:38;;;;;;;15.15;4.85;;;;;;;;;;5908343;28;20061;-73
2023/11/08 02:14:29;;;;;;;6.35;4.55;;;;;;;;;;5908117;28;20387;-72
2023/11/08 02:17:19;;;;;;;4.40;3.65;;;;;;;;;;5908250;28;20048;-73
2023/11/08 02:20:10;;;;;;;6.78;4.50;;;;;;;;;;5908101;28;20059;-73
2023/11/08 02:23:01;;;;;;;7.22;3.33;;;;;;;;;;5906892;28;20131;-71
2023/11/08 02:25:53;;;;;;;4.78;4.28;;;;;;;;;;5912354;28;20119;-72
2023/11/08 02:28:44;;;;;;;4.28;3.65;;;;;;;;;;5912331;28;20048;-73
2023/11/08 02:31:34;;;;;;;6.53;4.80;;;;;;;;;;5912257;28;20052;-73
2023/11/08 02:34:25;;;;;;;4.70;4.25;;;;;;;;;;5912059;28;20075;-73
2023/11/08 02:37:16;;;;;;;4.57;3.45;;;;;;;;;;5912291;28;20178;-72
2023/11/08 02:40:08;;;;;;;4.72;3.45;;;;;;;;;;5911923;28;20048;-72
2023/11/08 02:42:59;;;;;;;4.78;3.75;;;;;;;;;;5912457;28;20048;-72
2023/11/08 02:45:49;;;;;;;5.03;3.90;;;;;;;;;;5912093;28;20408;-73
2023/11/08 02:48:42;;;;;;;5.72;3.60;;;;;;;;;;5911534;28;20047;-73
2023/11/08 02:51:33;;;;;;;6.25;4.50;;;;;;;;;;5911872;28;20048;-72
2023/11/08 02:54:25;;;;;;;4.57;4.18;;;;;;;;;;5911565;28;20447;-73
2023/11/08 02:57:18;;;;;;;6.25;3.33;;;;;;;;;;5911616;28;20052;-73
2023/11/08 03:00:10;;;;;;;3.78;3.05;;;;;;;;;;5910036;28;20422;-72
2023/11/08 03:03:01;;;;;;;5.32;4.10;;;;;;;;;;5911637;28;20060;-71
2023/11/08 03:05:52;;;;;;;5.45;3.55;;;;;;;;;;5912057;28;20164;-73
2023/11/08 03:08:44;;;;;;;5.90;4.03;;;;;;;;;;5911449;28;20037;-73
2023/11/08 03:11:36;;;;;;;3.83;3.53;;;;;;;;;;5911481;28;20470;-73
2023/11/08 03:14:27;;;;;;;6.10;3.03;;;;;;;;;;5911301;28;20098;-72
2023/11/08 03:17:18;;;;;;;5.13;4.50;;;;;;;;;;5911346;28;20064;-72
2023/11/08 03:20:12;;;;;;;7.60;5.05;;;;;;;;;;5910994;28;20494;-72
2023/11/08 03:23:03;;;;;;;6.22;4.03;;;;;;;;;;5911098;28;20048;-73
2023/11/08 03:25:54;;;;;;;4.97;3.00;;;;;;;;;;5911757;28;20399;-73
2023/11/08 03:28:44;;;;;;;6.18;3.85;;;;;;;;;;5910963;28;20494;-72
2023/11/08 03:31:36;;;;;;;9.38;3.78;;;;;;;;;;5911136;28;20055;-73
2023/11/08 03:34:28;;;;;;;17.60;4.18;;;;;;;;;;5910920;28;20082;-73
2023/11/08 03:37:19;;;;;;;5.45;3.80;;;;;;;;;;5910182;28;20416;-72
2023/11/08 03:40:12;;;;;;;4.85;3.35;;;;;;;;;;5910427;28;20052;-73
2023/11/08 03:43:03;;;;;;;9.05;4.38;;;;;;;;;;5910490;28;20059;-72
2023/11/08 03:45:54;;;;;;;4.65;3.17;;;;;;;;;;5911126;28;20070;-72
2023/11/08 03:48:46;;;;;;;7.65;4.70;;;;;;;;;;5910478;28;20460;-72
2023/11/08 03:51:37;;;;;;;3.97;2.78;;;;;;;;;;5910732;28;20051;-73
2023/11/08 03:54:28;;;;;;;9.15;4.85;;;;;;;;;;5910648;28;20226;-73
2023/11/08 03:57:22;;;;;;;6.32;3.70;;;;;;;;;;5910542;28;20040;-73
2023/11/08 04:00:14;;;;;;;7.47;4.60;;;;;;;;;;5910164;28;20129;-73
2023/11/08 04:03:04;;;;;;;4.90;2.90;;;;;;;;;;5910238;28;20721;-73
2023/11/08 04:05:55;;;;;;;3.63;2.78;;;;;;;;;;5909297;28;20485;-73
2023/11/08 04:08:46;;;;;;;4.82;4.00;;;;;;;;;;5910037;28;20048;-72
2023/11/08 04:11:37;;;;;;;4.07;3.67;;;;;;;;;;5910089;28;20055;-73
2023/11/08 04:14:28;;;;;;;6.40;5.65;;;;;;;;;;5909860;28;20055;-72
2023/11/08 04:17:19;;;;;;;7.75;5.00;;;;;;;;;;5907815;28;20155;-73
2023/11/08 04:20:10;;;;;;;6.25;3.78;;;;;;;;;;5909428;28;20146;-72
2023/11/08 04:23:01;;;;;;;8.32;4.40;;;;;;;;;;5909973;28;20506;-72
2023/11/08 04:25:53;;;;;;;7.05;3.85;;;;;;;;;;5910204;28;20045;-73
2023/11/08 04:28:44;;;;;;;5.78;4.38;;;;;;;;;;5909720;28;20516;-73
2023/11/08 04:31:35;;;;;;;5.40;3.88;;;;;;;;;;5909728;28;20059;-73
2023/11/08 04:34:26;;;;;;;3.22;2.72;;;;;;;;;;5909622;28;20044;-72
2023/11/08 04:37:17;;;;;;;5.13;3.85;;;;;;;;;;5909552;28;20054;-73
2023/11/08 04:40:09;;;;;;;5.22;4.75;;;;;;;;;;5909607;28;20049;-73
2023/11/08 04:43:00;;;;;;;7.85;5.38;;;;;;;;;;5909701;28;20052;-73
2023/11/08 04:45:51;;;;;;;10.35;5.30;;;;;;;;;;5909918;28;20049;-72
2023/11/08 04:48:42;;;;;;;9.00;5.68;;;;;;;;;;5909033;28;20072;-73
2023/11/08 04:51:33;;;;;;;8.32;5.38;;;;;;;;;;5909200;28;20048;-73
2023/11/08 04:54:23;;;;;;;8.80;5.03;;;;;;;;;;5909119;28;20119;-73
2023/11/08 04:57:18;;;;;;;11.23;5.85;;;;;;;;;;5909423;28;20509;-73
2023/11/08 05:00:10;;;;;;;7.93;5.90;;;;;;;;;;5909295;28;20048;-72
2023/11/08 05:03:01;;;;;;;8.63;4.93;;;;;;;;;;5909002;28;20063;-72
2023/11/08 05:05:52;;;;;;;7.18;5.68;;;;;;;;;;5909582;28;20055;-73
2023/11/08 05:08:43;;;;;;;12.35;7.35;;;;;;;;;;5908883;28;20429;-73
2023/11/08 05:11:34;;;;;;;7.25;5.68;;;;;;;;;;5908908;28;20048;-73
2023/11/08 05:14:24;;;;;;;7.78;5.72;;;;;;;;;;5908799;28;20051;-73
2023/11/08 05:17:16;;;;;;;15.88;8.43;;;;;;;;;;5908853;28;20052;-73
2023/11/08 05:20:08;;;;;;;18.45;8.52;;;;;;;;;;5908563;28;20048;-73
2023/11/08 05:22:59;;;;;;;8.52;5.43;;;;;;;;;;5909114;28;20052;-73
2023/11/08 05:25:50;;;;;;;11.07;6.15;;;;;;;;;;5908901;28;20036;-73
2023/11/08 05:28:41;;;;;;;10.45;6.93;;;;;;;;;;5908734;28;20040;-72
2023/11/08 05:31:33;;;;;;;9.18;6.40;;;;;;;;;;5908822;28;20045;-72
2023/11/08 05:34:27;;;;;;;8.90;7.00;;;;;;;;;;5908618;28;20056;-73
2023/11/08 05:37:18;;;;;;;17.65;7.90;;;;;;;;;;5908766;28;20060;-73
2023/11/08 05:40:12;;;;;;;12.60;6.40;;;;;;;;;;5908579;28;20053;-73
2023/11/08 05:43:05;;;;;;;6.72;6.05;;;;;;;;;;5908688;28;20052;-72
2023/11/08 05:45:55;;;;;;;10.77;7.82;;;;;;;;;;5908945;28;20051;-73
2023/11/08 05:48:46;;;;;;;15.18;7.60;;;;;;;;;;5908256;28;20517;-73
2023/11/08 05:51:38;;;;;;;14.48;8.15;;;;;;;;;;5908481;28;20118;-73
2023/11/08 05:54:30;;;;;;;24.02;9.45;;;;;;;;;;5908421;28;20044;-73
2023/11/08 05:57:21;;;;;;;14.25;9.38;;;;;;;;;;5908283;28;20401;-73
2023/11/08 06:00:14;;;;;;;10.60;6.57;;;;;;;;;;5911009;28;20055;-73
2023/11/08 06:03:05;;;;;;;16.10;6.28;;;;;;;;;;5912879;28;20055;-72
2023/11/08 06:05:56;;;;;;;6.63;5.88;;;;;;;;;;5913359;28;20056;-73
2023/11/08 06:08:48;;;;;;;6.78;5.25;;;;;;;;;;5912735;28;20044;-73
2023/11/08 06:11:39;;;;;;;7.93;6.15;;;;;;;;;;5912626;28;20044;-73
2023/11/08 06:14:30;;;;;;;6.40;4.72;;;;;;;;;;5912610;28;20387;-73
2023/11/08 06:17:21;;;;;;;15.18;5.57;;;;;;;;;;5912847;28;20067;-73
2023/11/08 06:20:11;;;;;;;12.90;6.20;;;;;;;;;;5912603;28;20527;-72
2023/11/08 06:23:03;;;;;;;8.23;4.82;;;;;;;;;;5912563;28;20398;-72
2023/11/08 06:25:53;;;;;;;7.00;5.40;;;;;;;;;;5913051;28;20079;-73
2023/11/08 06:28:45;;;;;;;7.65;4.85;;;;;;;;;;5912630;28;20040;-73
2023/11/08 06:31:40;;;;;;;9.40;5.80;;;;;;;;;;5911208;28;20571;-73
2023/11/08 06:34:30;;;;;;;5.57;4.68;;;;;;;;;;5912113;28;20048;-73
2023/11/08 06:37:22;;;;;;;9.20;5.60;;;;;;;;;;5912398;28;20052;-73
2023/11/08 06:40:13;;;;;;;7.18;5.65;;;;;;;;;;5911947;28;20053;-72
2023/11/08 06:43:04;;;;;;;6.50;4.95;;;;;;;;;;5912170;28;20561;-72
2023/11/08 06:45:55;;;;;;;12.32;6.68;;;;;;;;;;5912641;28;20055;-73
2023/11/08 06:48:46;;;;;;;8.52;5.45;;;;;;;;;;5912019;28;20486;-73
2023/11/08 06:51:37;;;;;;;9.18;5.95;;;;;;;;;;5912006;28;20506;-73
2023/11/08 06:54:28;;;;;;;8.63;6.35;;;;;;;;;;5911905;28;20494;-73
2023/11/08 06:57:19;;;;;;;12.57;6.72;;;;;;;;;;5912089;28;20072;-73
2023/11/08 07:00:14;;;;;;;9.98;6.35;;;;;;;;;;5911521;28;20048;-73
2023/11/08 07:03:05;;;;;;;6.05;5.32;;;;;;;;;;5911637;28;20141;-72
2023/11/08 07:05:56;;;;;;;7.82;5.32;;;;;;;;;;5912173;28;20052;-73
2023/11/08 07:08:47;;;;;;;7.50;5.40;;;;;;;;;;5911566;28;20137;-73
2023/11/08 07:11:37;;;;;;;10.98;5.00;;;;;;;;;;5910333;28;20045;-73
2023/11/08 07:14:28;;;;;;;6.57;5.13;;;;;;;;;;5911455;28;20044;-73
2023/11/08 07:17:19;;;;;;;6.70;5.03;;;;;;;;;;5911548;28;20137;-73
2023/11/08 07:20:10;;;;;;;5.45;3.28;;;;;;;;;;5911174;28;20052;-72
2023/11/08 07:23:02;;;;;;;5.30;3.65;;;;;;;;;;5911148;28;20421;-72
2023/11/08 07:25:53;;;;;;;8.02;4.72;;;;;;;;;;5911693;28;20052;-72
2023/11/08 07:28:44;;;;;;;5.68;3.45;;;;;;;;;;5911069;28;20465;-72
2023/11/08 07:31:35;;;;;;;9.55;5.53;;;;;;;;;;5911183;28;20044;-73
2023/11/08 07:34:27;;;;;;;4.88;4.38;;;;;;;;;;5911075;28;20070;-72
2023/11/08 07:37:18;;;;;;;4.70;3.90;;;;;;;;;;5911010;28;20135;-72
2023/11/08 07:40:13;;;;;;;16.85;4.82;;;;;;;;;;5909311;28;20044;-72
2023/11/08 07:43:04;;;;;;;5.22;3.72;;;;;;;;;;5910648;28;20131;-72
2023/11/08 07:45:54;;;;;;;8.00;5.82;;;;;;;;;;5910966;28;20051;-72
2023/11/08 07:48:45;;;;;;;9.27;4.32;;;;;;;;;;5910592;28;20102;-73
2023/11/08 07:51:36;;;;;;;9.63;4.25;;;;;;;;;;5910703;28;20045;-72
2023/11/08 07:54:27;;;;;;;6.38;3.55;;;;;;;;;;5910387;28;20070;-72
2023/11/08 07:57:18;;;;;;;9.02;6.35;;;;;;;;;;5910570;28;20058;-72
2023/11/08 08:00:14;;;;;;;7.22;3.97;;;;;;;;;;5910111;28;20049;-72
2023/11/08 08:03:05;;;;;;;5.45;4.00;;;;;;;;;;5910234;28;20075;-72
2023/11/08 08:05:57;;;;;;;10.23;4.18;;;;;;;;;;5910708;28;20052;-72
2023/11/08 08:08:48;;;;;;;3.75;3.25;;;;;;;;;;5910235;28;20044;-73
2023/11/08 08:11:39;;;;;;;9.50;4.68;;;;;;;;;;5910190;28;20055;-72
2023/11/08 08:14:29;;;;;;;4.88;3.92;;;;;;;;;;5909938;28;20063;-72
2023/11/08 08:17:20;;;;;;;4.05;2.65;;;;;;;;;;5910424;28;20051;-73
2023/11/08 08:20:11;;;;;;;5.13;3.70;;;;;;;;;;5909829;28;20122;-72
2023/11/08 08:23:02;;;;;;;3.10;2.80;;;;;;;;;;5909649;28;20589;-73
2023/11/08 08:25:54;;;;;;;4.50;3.30;;;;;;;;;;5910186;28;20059;-73
2023/11/08 08:28:45;;;;;;;4.60;3.75;;;;;;;;;;5909752;28;20454;-72
2023/11/08 08:31:35;;;;;;;5.63;3.35;;;;;;;;;;5909774;28;20441;-73
2023/11/08 08:34:26;;;;;;;7.25;3.15;;;;;;;;;;5909713;28;20049;-73
2023/11/08 08:37:21;;;;;;;5.43;2.78;;;;;;;;;;5909736;28;20506;-73
2023/11/08 08:40:12;;;;;;;3.88;2.53;;;;;;;;;;5909224;28;20053;-73
2023/11/08 08:43:05;;;;;;;3.60;3.25;;;;;;;;;;5909580;28;20064;-72
2023/11/08 08:45:56;;;;;;;4.63;3.17;;;;;;;;;;5909846;28;20052;-73
2023/11/08 08:48:46;;;;;;;5.47;4.25;;;;;;;;;;5909287;28;20045;-73
2023/11/08 08:51:38;;;;;;;5.05;3.47;;;;;;;;;;5909453;28;20051;-72
2023/11/08 08:54:30;;;;;;;3.28;2.35;;;;;;;;;;5909342;28;20052;-72
2023/11/08 08:57:22;;;;;;;4.22;2.80;;;;;;;;;;5908057;28;20044;-73
2023/11/08 09:00:16;;;;;;;6.75;3.90;;;;;;;;;;5909066;28;20387;-73
2023/11/08 09:03:07;;;;;;;5.95;3.05;;;;;;;;;;5909174;28;20055;-72
2023/11/08 09:05:58;;;;;;;3.60;3.28;;;;;;;;;;5909608;28;20052;-72
2023/11/08 09:08:49;;;;;;;5.40;3.15;;;;;;;;;;5909327;28;20052;-73
2023/11/08 09:11:40;;;;;;;13.70;1.73;;;;;;;;;;5909457;28;20413;-73
2023/11/08 09:14:32;;;;;;;6.85;2.20;;;;;;;;;;5909233;28;20472;-73
2023/11/08 09:17:23;;;;;;;2.47;2.08;;;;;;;;;;5909318;28;20060;-73
2023/11/08 09:20:14;;;;;;;2.42;2.00;;;;;;;;;;5909124;28;20062;-72
2023/11/08 09:23:04;;;;;;;2.30;2.03;;;;;;;;;;5909014;28;20048;-72
2023/11/08 09:25:55;;;;;;;2.85;1.92;;;;;;;;;;5909258;28;20045;-73
2023/11/08 09:28:46;;;;;;;3.42;2.72;;;;;;;;;;5908987;28;20395;-72
2023/11/08 09:31:38;;;;;;;2.47;2.25;;;;;;;;;;5908927;28;20044;-73
2023/11/08 09:34:28;;;;;;;2.58;1.83;;;;;;;;;;5910467;28;20052;-73
2023/11/08 09:37:21;;;;;;;2.47;1.90;;;;;;;;;;5913865;28;20045;-73
2023/11/08 09:40:14;;;;;;;3.17;2.00;;;;;;;;;;5913493;28;20186;-72
2023/11/08 09:43:06;;;;;;;5.53;2.45;;;;;;;;;;5912395;28;20520;-72
2023/11/08 09:45:58;;;;;;;4.15;2.90;;;;;;;;;;5912696;28;20056;-73
2023/11/08 09:48:50;;;;;;;5.60;3.25;;;;;;;;;;5913568;28;20139;-72
2023/11/08 09:51:41;;;;;;;6.30;2.97;;;;;;;;;;5913454;28;20051;-72
2023/11/08 09:54:32;;;;;;;10.88;6.75;;;;;;;;;;5912026;28;20058;-72
2023/11/08 09:57:26;;;;;;;7.95;3.95;;;;;;;;;;5913288;28;20044;-73
2023/11/08 10:00:20;;;;;;;11.88;8.23;;;;;;;;;;5911844;28;20059;-73
2023/11/08 10:03:13;;;;;;;9.70;7.68;;;;;;;;;;5913006;28;20140;-73
2023/11/08 10:06:06;;;;;;;6.25;3.80;;;;;;;;;;5911727;28;20390;-72
2023/11/08 10:08:58;;;;;;;1.48;1.23;;;;;;;;;;5912104;28;20044;-73
2023/11/08 10:11:49;;;;;;;1.30;1.20;;;;;;;;;;5913052;28;20051;-72
2023/11/08 10:14:40;;;;;;;0.88;0.85;;;;;;;;;;5912939;28;20410;-73
2023/11/08 10:17:40;;;;;;;2.60;1.05;;;;;;;;;;5912743;28;20048;-73
2023/11/08 10:20:51;;;;;;;2.20;1.33;;;;;;;;;;5912851;28;20489;-72
2023/11/08 10:23:59;;;;;;;1.25;1.08;;;;;;;;;;5911812;28;20129;-72
2023/11/08 10:26:50;;;;;;;2.08;1.42;;;;;;;;;;5912898;28;20044;-72
2023/11/08 10:29:41;;;;;;;1.33;1.23;;;;;;;;;;5912344;28;20047;-73
2023/11/08 10:32:31;;;;;;;2.35;1.75;;;;;;;;;;5912297;28;20049;-73
2023/11/08 10:35:23;;;;;;;1.63;1.35;;;;;;;;;;5912442;28;20398;-73
2023/11/08 10:38:15;;;;;;;4.03;1.88;;;;;;;;;;5912413;28;20517;-73
2023/11/08 10:41:06;;;;;;;1.40;0.95;;;;;;;;;;5912218;28;20056;-72
2023/11/08 10:44:22;;;;;;;3.60;1.08;;;;;;;;;;5912642;28;20048;-73
2023/11/08 10:47:15;;;;;;;1.33;1.10;;;;;;;;;;5911877;28;20051;-73
2023/11/08 10:50:12;;;;;;;4.50;1.48;;;;;;;;;;5912034;28;20051;-72
2023/11/08 10:53:02;;;;;;;3.53;1.05;;;;;;;;;;5912182;28;20049;-72
2023/11/08 10:55:54;;;;;;;1.10;0.90;;;;;;;;;;5911305;28;20590;-73
2023/11/08 10:58:47;;;;;;;2.78;1.50;;;;;;;;;;5910445;28;20162;-73
2023/11/08 11:01:41;;;;;;;5.10;1.23;;;;;;;;;;5911796;28;20052;-74
2023/11/08 11:04:32;;;;;;;1.65;1.35;;;;;;;;;;5911870;28;20055;-73
2023/11/08 11:07:25;;;;;;;2.28;1.67;;;;;;;;;;5910529;28;20048;-73
2023/11/08 11:10:17;;;;;;;1.20;1.10;;;;;;;;;;5911417;28;20045;-73
2023/11/08 11:13:21;;;;;;;1.13;1.02;;;;;;;;;;5910166;28;20455;-72
2023/11/08 11:16:23;;;;;;;1.92;1.27;;;;;;;;;;5910356;28;20135;-73
2023/11/08 11:19:28;;;;;;;4.28;1.85;;;;;;;;;;5911524;28;20052;-73
2023/11/08 11:22:21;;;;;;;4.20;1.45;;;;;;;;;;5910300;28;20042;-74
2023/11/08 11:25:48;;;;;;;0.68;0.68;;;;;;;;;;5911245;28;20052;-74
2023/11/08 11:28:52;;;;;;;1.38;0.95;;;;;;;;;;5911264;28;20485;-73
2023/11/08 11:31:43;;;;;;;2.15;1.48;;;;;;;;;;5911316;28;20044;-73
2023/11/08 11:34:36;;;;;;;2.47;1.08;;;;;;;;;;5911133;28;20494;-73
2023/11/08 11:37:26;;;;;;;2.50;1.63;;;;;;;;;;5910977;28;20044;-72
2023/11/08 11:40:18;;;;;;;2.25;1.65;;;;;;;;;;5910862;28;20048;-73
2023/11/08 11:43:30;;;;;;;2.85;2.05;;;;;;;;;;5910959;28;20056;-73
2023/11/08 11:46:21;;;;;;;2.30;1.83;;;;;;;;;;5910829;28;20078;-73
2023/11/08 11:49:13;;;;;;;1.38;1.25;;;;;;;;;;5910657;28;20051;-73
2023/11/08 11:52:05;;;;;;;3.80;1.73;;;;;;;;;;5910903;28;20417;-72
2023/11/08 11:54:59;;;;;;;18.45;2.17;;;;;;;;;;5909805;28;20062;-73
2023/11/08 11:57:50;;;;;;;8.50;2.47;;;;;;;;;;5910160;28;20044;-74
2023/11/08 12:00:41;;;;;;;1.30;1.20;;;;;;;;;;5910388;28;20044;-74
2023/11/08 12:03:32;;;;;;;3.75;1.92;;;;;;;;;;5910362;28;20040;-73
2023/11/08 12:06:23;;;;;;;1.83;1.38;;;;;;;;;;5910406;28;20068;-73
2023/11/08 12:09:13;;;;;;;1.67;0.98;;;;;;;;;;5910472;28;20070;-74
2023/11/08 12:12:06;;;;;;;2.10;1.17;;;;;;;;;;5910468;28;20060;-72
2023/11/08 12:14:57;;;;;;;3.03;1.83;;;;;;;;;;5910420;28;20048;-74
2023/11/08 12:17:50;;;;;;;6.20;1.90;;;;;;;;;;5910077;28;20516;-74
2023/11/08 12:20:41;;;;;;;14.25;2.28;;;;;;;;;;5910135;28;20111;-74
2023/11/08 12:23:32;;;;;;;9.88;1.27;;;;;;;;;;5910229;28;20040;-74
2023/11/08 12:26:23;;;;;;;12.95;3.05;;;;;;;;;;5910096;28;20044;-74
2023/11/08 12:29:16;;;;;;;4.85;1.77;;;;;;;;;;5909879;28;20075;-74
2023/11/08 12:32:07;;;;;;;7.03;1.63;;;;;;;;;;5909926;28;20059;-73
2023/11/08 12:34:58;;;;;;;3.63;1.05;;;;;;;;;;5910161;28;20529;-74
2023/11/08 12:37:48;;;;;;;5.40;1.00;;;;;;;;;;5908362;28;20137;-74
2023/11/08 12:40:39;;;;;;;4.38;1.52;;;;;;;;;;5909597;28;20044;-73
2023/11/08 12:43:31;;;;;;;3.78;1.65;;;;;;;;;;5909540;28;20052;-73
2023/11/08 12:46:49;;;;;;;1.27;1.02;;;;;;;;;;5909693;28;20131;-73
2023/11/08 12:49:41;;;;;;;2.63;1.80;;;;;;;;;;5909337;28;20200;-74
2023/11/08 12:52:34;;;;;;;2.92;1.58;;;;;;;;;;5909435;28;20051;-73
2023/11/08 12:55:40;;;;;;;6.80;1.42;;;;;;;;;;5909439;28;20113;-73
2023/11/08 12:58:33;;;;;;;1.13;1.02;;;;;;;;;;5909357;28;20143;-73
2023/11/08 13:01:24;;;;;;;2.35;1.75;;;;;;;;;;5909410;28;20051;-73
2023/11/08 13:04:18;;;;;;;1.30;1.20;;;;;;;;;;5909153;28;20048;-74
2023/11/08 13:07:10;;;;;;;5.70;2.13;;;;;;;;;;5909313;28;20132;-73
2023/11/08 13:10:03;;;;;;;5.68;2.40;;;;;;;;;;5909190;28;20050;-72
2023/11/08 13:12:54;;;;;;;3.65;1.58;;;;;;;;;;5909522;28;20110;-73
2023/11/08 13:15:47;;;;;;;1.85;1.50;;;;;;;;;;5909278;28;20044;-74
2023/11/08 13:18:37;;;;;;;2.42;1.40;;;;;;;;;;5908653;28;20045;-74
2023/11/08 13:21:29;;;;;;;1.92;0.93;;;;;;;;;;5895310;28;20048;-74
2023/11/08 13:24:21;;;;;;;3.40;0.80;;;;;;;;;;5902632;28;20083;-74
2023/11/08 13:27:13;;;;;;;1.92;1.25;;;;;;;;;;5883976;28;20048;-73
2023/11/08 13:30:06;;;;;;;0.80;0.43;;;;;;;;;;5893301;28;20048;-74
2023/11/08 13:32:57;;;;;;;0.60;0.52;;;;;;;;;;5909479;28;20045;-73
2023/11/08 13:35:48;;;;;;;0.90;0.80;;;;;;;;;;5891975;28;20526;-73
2023/11/08 13:38:39;;;;;;;0.70;0.70;;;;;;;;;;5886084;28;20045;-73
2023/11/08 13:41:30;;;;;;;1.80;0.98;;;;;;;;;;5885793;28;20063;-74
2023/11/08 13:44:22;;;;;;;2.65;1.08;;;;;;;;;;5885461;28;20120;-73
2023/11/08 13:47:14;;;;;;;1.67;1.08;;;;;;;;;;5885913;28;20053;-72
2023/11/08 13:50:05;;;;;;;5.85;3.67;;;;;;;;;;5885367;28;20049;-73
2023/11/08 13:52:56;;;;;;;3.22;2.38;;;;;;;;;;5886080;28;20049;-73
2023/11/08 13:55:47;;;;;;;2.22;1.65;;;;;;;;;;5885834;28;20045;-72
2023/11/08 13:58:38;;;;;;;2.25;1.60;;;;;;;;;;5885874;28;20124;-73
2023/11/08 14:01:29;;;;;;;6.70;1.38;;;;;;;;;;5885379;28;20044;-74
2023/11/08 14:04:20;;;;;;;16.88;8.80;;;;;;;;;;5884476;28;20392;-74
2023/11/08 14:07:10;;;;;;;9.80;4.57;;;;;;;;;;5885607;28;20052;-74
2023/11/08 14:10:03;;;;;;;7.43;5.25;;;;;;;;;;5885376;28;20057;-73
2023/11/08 14:12:55;;;;;;;11.23;3.85;;;;;;;;;;5885650;28;20049;-74
2023/11/08 14:15:46;;;;;;;3.42;2.35;;;;;;;;;;5885426;28;20056;-74
2023/11/08 14:18:37;;;;;;;3.08;0.55;;;;;;;;;;5885398;28;20048;-73
2023/11/08 14:21:28;;;;;;;1.98;1.15;;;;;;;;;;5910303;28;20048;-71
2023/11/08 14:24:19;;;;;;;1.10;0.93;;;;;;;;;;5908666;28;20053;-73
2023/11/08 14:27:09;;;;;;;2.60;1.83;;;;;;;;;;5889928;28;20052;-72
2023/11/08 14:30:00;;;;;;;2.78;1.48;;;;;;;;;;5888440;28;20049;-71
2023/11/08 14:32:51;;;;;;;1.35;1.25;;;;;;;;;;5888705;28;20048;-74
2023/11/08 14:35:42;;;;;;;1.52;1.20;;;;;;;;;;5888839;28;20051;-72
2023/11/08 14:38:35;;;;;;;1.23;0.98;;;;;;;;;;5888517;28;20056;-73
2023/11/08 14:41:26;;;;;;;1.48;1.23;;;;;;;;;;5887941;28;20155;-73
2023/11/08 14:44:16;;;;;;;2.03;1.02;;;;;;;;;;5889117;28;20057;-72
2023/11/08 14:47:07;;;;;;;1.00;0.93;;;;;;;;;;5889073;28;20056;-73
2023/11/08 14:49:58;;;;;;;2.05;1.33;;;;;;;;;;5889086;28;20053;-73
2023/11/08 14:52:49;;;;;;;3.22;1.40;;;;;;;;;;5889023;28;20123;-73
2023/11/08 14:55:41;;;;;;;1.52;1.42;;;;;;;;;;5887875;28;20045;-73
2023/11/08 14:58:32;;;;;;;5.10;3.40;;;;;;;;;;5887233;28;20041;-73
2023/11/08 15:01:23;;;;;;;27.85;12.30;;;;;;;;;;5888570;28;20041;-73
2023/11/08 15:04:14;;;;;;;15.00;8.45;;;;;;;;;;5888458;28;20060;-72
2023/11/08 15:07:06;;;;;;;12.95;5.97;;;;;;;;;;5885969;28;20064;-72
2023/11/08 15:10:17;;;;;;;4.45;3.78;;;;;;;;;;5888743;28;20560;-72
2023/11/08 15:13:08;;;;;;;4.28;3.13;;;;;;;;;;5888887;28;20053;-72
2023/11/08 15:15:59;;;;;;;8.95;4.50;;;;;;;;;;5901616;28;20182;-73
2023/11/08 15:18:50;;;;;;;14.52;7.85;;;;;;;;;;5911727;28;20064;-73
2023/11/08 15:21:44;;;;;;;17.98;9.05;;;;;;;;;;5890854;28;20534;-73
2023/11/08 15:24:35;;;;;;;15.50;9.23;;;;;;;;;;5888369;28;20051;-72
2023/11/08 15:27:26;;;;;;;13.10;7.05;;;;;;;;;;5887268;28;20051;-73
2023/11/08 15:33:26;;;;;;;15.73;6.10;;;;;;;;;;5766217;27;4103537;-73
2023/11/08 15:36:16;;;;;;;13.68;8.90;;;;;;;;;;5878890;28;20046;-73
2023/11/08 15:39:07;;;;;;;26.08;15.82;;;;;;;;;;5895116;28;20051;-73
2023/11/08 15:41:58;;;;;;;46.75;30.80;;;;;;;;;;5906955;28;20060;-73
2023/11/08 15:44:49;;;;;;;30.50;16.02;;;;;;;;;;5906563;28;20051;-73
2023/11/08 15:47:41;;;;;;;24.38;12.23;;;;;;;;;;5906435;28;20045;-73
2023/11/08 15:50:33;;;;;;;21.83;11.50;;;;;;;;;;5905723;28;20045;-73
2023/11/08 15:53:24;;;;;;;15.27;11.18;;;;;;;;;;5906536;28;20049;-73
2023/11/08 15:56:14;;;;;;;22.45;12.13;;;;;;;;;;5905992;28;20059;-73
2023/11/08 15:59:05;;;;;;;21.60;13.48;;;;;;;;;;5905402;28;20215;-73
2023/11/08 16:01:56;;;;;;;24.85;13.63;;;;;;;;;;5905939;28;20451;-73
2023/11/08 16:04:47;;;;;;;21.95;11.02;;;;;;;;;;5905215;28;20395;-73
2023/11/08 16:12:40;;;;;;;24.48;14.38;;;;;;;;;;5863797;27;1273060;-73
2023/11/08 16:15:30;;;;;;;31.00;18.90;;;;;;;;;;5868786;28;20042;-73
2023/11/08 16:18:24;;;;;;;29.25;18.35;;;;;;;;;;5858718;28;20041;-73
2023/11/08 16:21:15;;;;;;;41.80;24.73;;;;;;;;;;5883609;28;20045;-73
2023/11/08 16:24:07;;;;;;;50.50;26.77;;;;;;;;;;5883368;28;20064;-73
2023/11/08 16:26:58;;;;;;;46.30;17.88;;;;;;;;;;5883591;28;20041;-73
2023/11/08 16:29:48;;;;;;;24.00;14.10;;;;;;;;;;5881856;28;20060;-73
2023/11/08 16:32:44;;;;;;;31.83;14.38;;;;;;;;;;5882780;28;20037;-73
2023/11/08 16:35:36;;;;;;;18.73;12.18;;;;;;;;;;5882723;28;20106;-73
2023/11/08 16:38:26;;;;;;;18.38;7.38;;;;;;;;;;5881362;28;20410;-73
2023/11/08 16:41:19;;;;;;;14.05;7.45;;;;;;;;;;5881938;28;20045;-73
2023/11/08 16:44:10;;;;;;;21.33;10.20;;;;;;;;;;5882354;28;20084;-73
2023/11/08 16:47:03;;;;;;;19.92;12.07;;;;;;;;;;5881880;28;20060;-73
2023/11/08 16:49:54;;;;;;;19.63;11.40;;;;;;;;;;5882286;28;20072;-74
2023/11/08 16:52:45;;;;;;;24.40;13.48;;;;;;;;;;5881758;28;20052;-74
2023/11/08 16:55:38;;;;;;;12.40;7.72;;;;;;;;;;5881771;28;20049;-74
2023/11/08 16:58:28;;;;;;;26.73;7.45;;;;;;;;;;5882057;28;20392;-73
2023/11/08 17:01:22;;;;;;;8.18;5.32;;;;;;;;;;5881480;28;20732;-72
2023/11/08 17:04:14;;;;;;;9.48;4.82;;;;;;;;;;5881732;28;20049;-74
2023/11/08 17:07:05;;;;;;;12.70;4.93;;;;;;;;;;5881610;28;20044;-73
2023/11/08 17:09:56;;;;;;;5.85;3.92;;;;;;;;;;5881911;28;20045;-73
2023/11/08 17:12:47;;;;;;;5.93;4.82;;;;;;;;;;5881366;28;20128;-73